ROMMA est une association bénévole à but non lucratif. Votre soutien est indispensable : ADHERER à ROMMA ou FAIRE un DON

Challes-les-Eaux - (73, Savoie)

Trouée des Marches (325 m)   Longitude: 05° 58' E   Latitude: 45° 32' N Station romma n°148
 

Détail journalier du     <<     >>

Température Precipitation Humidité Pression Vent Dir Rafale Dir. rafale
Heure (°C) (mm) (%) (hPa) (km/h) (km/h)
01:00 10.808810221OSO6SO
02:00 9.809010221SO5SO
03:00 9.609010221SO5SO
04:00 10.408710211SO8SE
05:00 9.808810212SE11SE
06:00 9.308910215ESE18SE
07:00 9.308810214ESE11ESE
08:00 9.208710213ESE13ESE
09:00 9.108810213SSE11ESE
10:00 12.107910215ESE18ESE
11:00 13.707610215ESE15SE
12:00 15.207110213SSE11S
13:00 18.306210212ESE8SE
14:00 19.606310202OSO10ESE
15:00 20.206010201N5N
16:00 21.306010203N13NNO
17:00 21.206810204NNE16NNE
18:00 20.407210202N11N
19:00 19.207110191SE6SSE
20:00 17.707710201SSE5SSE
21:00 17.107910201SSE6SSE
22:00 16.707910202SE8SE
23:00 15.508510201SE3SE
minuit 14.9085102003SE

Graphique du 12-10-2019

 

Serveur OMMA